createdAt,value
2016-09-11T00:00:08.626Z,1003.42
2016-09-11T00:01:08.653Z,1003.42
2016-09-11T00:02:08.682Z,1003.41
2016-09-11T00:03:08.712Z,1003.42
2016-09-11T00:04:08.753Z,1003.41
2016-09-11T00:05:08.771Z,1003.43
2016-09-11T00:06:08.795Z,1003.41
2016-09-11T00:07:08.818Z,1003.4
2016-09-11T00:08:08.848Z,1003.38
2016-09-11T00:09:08.871Z,1003.39
2016-09-11T00:10:08.899Z,1003.38
2016-09-11T00:11:08.925Z,1003.35
2016-09-11T00:12:08.967Z,1003.33
2016-09-11T00:13:08.979Z,1003.36
2016-09-11T00:14:09.005Z,1003.31
2016-09-11T00:15:09.032Z,1003.33
2016-09-11T00:16:09.123Z,1003.29
2016-09-11T00:17:09.091Z,1003.27
2016-09-11T00:18:09.116Z,1003.29
2016-09-11T00:19:09.336Z,1003.3
2016-09-11T00:20:09.267Z,1003.3
2016-09-11T00:21:09.195Z,1003.31
2016-09-11T00:22:09.229Z,1003.32
2016-09-11T00:23:09.277Z,1003.33
2016-09-11T00:24:09.277Z,1003.32
2016-09-11T00:25:09.304Z,1003.33
2016-09-11T00:26:09.332Z,1003.33
2016-09-11T00:27:09.379Z,1003.34
2016-09-11T00:28:09.385Z,1003.34
2016-09-11T00:29:09.412Z,1003.33
2016-09-11T00:30:09.445Z,1003.32
2016-09-11T00:31:09.466Z,1003.31
2016-09-11T00:32:09.547Z,1003.33
2016-09-11T00:33:09.526Z,1003.29
2016-09-11T00:34:09.556Z,1003.35
2016-09-11T00:35:09.573Z,1003.34
2016-09-11T00:36:09.603Z,1003.38
2016-09-11T00:37:09.638Z,1003.37
2016-09-11T00:38:09.682Z,1003.32
2016-09-11T00:39:09.680Z,1003.32
2016-09-11T00:40:09.713Z,1003.3
2016-09-11T00:41:09.737Z,1003.34
2016-09-11T00:42:09.763Z,1003.31
2016-09-11T00:43:09.789Z,1003.35
2016-09-11T00:44:09.830Z,1003.34
2016-09-11T00:45:09.841Z,1003.37
2016-09-11T00:46:09.868Z,1003.35
2016-09-11T00:47:09.969Z,1003.38
2016-09-11T00:48:09.926Z,1003.33
2016-09-11T00:49:09.956Z,1003.36
2016-09-11T00:50:09.974Z,1003.4
2016-09-11T00:51:10.014Z,1003.4
2016-09-11T00:52:10.125Z,1003.42
2016-09-11T00:53:10.059Z,1003.4
2016-09-11T00:54:10.083Z,1003.43
2016-09-11T00:55:10.108Z,1003.43
2016-09-11T00:56:10.135Z,1003.44
2016-09-11T00:57:10.166Z,1003.42
2016-09-11T00:58:10.194Z,1003.42
2016-09-11T00:59:10.266Z,1003.43
2016-09-11T01:00:10.242Z,1003.47
2016-09-11T01:01:10.269Z,1003.47
2016-09-11T01:02:10.295Z,1003.45
2016-09-11T01:03:10.354Z,1003.47
2016-09-11T01:04:10.370Z,1003.45
2016-09-11T01:05:10.377Z,1003.42
2016-09-11T01:06:10.402Z,1003.45
2016-09-11T01:07:10.428Z,1003.44
2016-09-11T01:08:10.461Z,1003.43
2016-09-11T01:09:10.481Z,1003.45
2016-09-11T01:10:10.508Z,1003.46
2016-09-11T01:11:10.542Z,1003.41
2016-09-11T01:12:10.570Z,1003.45
2016-09-11T01:13:10.586Z,1003.45
2016-09-11T01:14:10.615Z,1003.46
2016-09-11T01:15:10.641Z,1003.41
2016-09-11T01:16:10.666Z,1003.46
2016-09-11T01:17:10.705Z,1003.45
2016-09-11T01:18:10.721Z,1003.44
2016-09-11T01:19:10.748Z,1003.44
2016-09-11T01:20:10.775Z,1003.46
2016-09-11T01:21:10.821Z,1003.41
2016-09-11T01:22:10.836Z,1003.42
2016-09-11T01:23:10.871Z,1003.43
2016-09-11T01:24:10.927Z,1003.44
2016-09-11T01:25:10.905Z,1003.42
2016-09-11T01:26:11.251Z,1003.43
2016-09-11T01:27:10.959Z,1003.44
2016-09-11T01:28:11.005Z,1003.47
2016-09-11T01:29:11.012Z,1003.42
2016-09-11T01:30:11.036Z,1003.47
2016-09-11T01:31:11.065Z,1003.47
2016-09-11T01:32:11.091Z,1003.46
2016-09-11T01:33:11.124Z,1003.45
2016-09-11T01:34:11.146Z,1003.42
2016-09-11T01:35:11.169Z,1003.47
2016-09-11T01:36:11.195Z,1003.44
2016-09-11T01:37:11.237Z,1003.44
2016-09-11T01:38:11.249Z,1003.44
2016-09-11T01:39:11.282Z,1003.44
2016-09-11T01:40:11.372Z,1003.42
2016-09-11T01:41:11.327Z,1003.44
2016-09-11T01:42:11.361Z,1003.44
2016-09-11T01:43:11.380Z,1003.45
2016-09-11T01:44:11.406Z,1003.45
2016-09-11T01:45:11.433Z,1003.44
2016-09-11T01:46:11.500Z,1003.47
2016-09-11T01:47:11.485Z,1003.46
2016-09-11T01:48:11.520Z,1003.47
2016-09-11T01:49:11.537Z,1003.51
2016-09-11T01:50:11.565Z,1003.48
2016-09-11T01:51:11.596Z,1003.48
2016-09-11T01:52:11.654Z,1003.46
2016-09-11T01:53:11.654Z,1003.47
2016-09-11T01:54:11.670Z,1003.51
2016-09-11T01:55:11.695Z,1003.44
2016-09-11T01:56:11.747Z,1003.47
2016-09-11T01:57:11.748Z,1003.45
2016-09-11T01:58:11.778Z,1003.48
2016-09-11T01:59:11.805Z,1003.48
2016-09-11T02:00:11.827Z,1003.48
2016-09-11T02:01:11.852Z,1003.45
2016-09-11T02:02:11.880Z,1003.43
2016-09-11T02:03:11.904Z,1003.45
2016-09-11T02:04:11.938Z,1003.46
2016-09-11T02:05:11.980Z,1003.48
2016-09-11T02:06:11.984Z,1003.45
2016-09-11T02:07:12.013Z,1003.5
2016-09-11T02:08:12.041Z,1003.51
2016-09-11T02:09:12.108Z,1003.49
2016-09-11T02:10:12.087Z,1003.5
2016-09-11T02:11:12.123Z,1003.5
2016-09-11T02:12:12.139Z,1003.48
2016-09-11T02:13:12.165Z,1003.5
2016-09-11T02:14:12.191Z,1003.49
2016-09-11T02:15:12.217Z,1003.51
2016-09-11T02:16:12.248Z,1003.47
2016-09-11T02:17:12.271Z,1003.49
2016-09-11T02:18:12.296Z,1003.5
2016-09-11T02:19:12.326Z,1003.5
2016-09-11T02:20:12.468Z,1003.46
2016-09-11T02:21:12.379Z,1003.5
2016-09-11T02:22:12.398Z,1003.49
2016-09-11T02:23:12.426Z,1003.49
2016-09-11T02:24:12.452Z,1003.51
2016-09-11T02:25:12.482Z,1003.5
2016-09-11T02:26:12.506Z,1003.46
2016-09-11T02:27:12.530Z,1003.52
2016-09-11T02:28:12.555Z,1003.49
2016-09-11T02:29:12.582Z,1003.48
2016-09-11T02:30:12.617Z,1003.48
2016-09-11T02:31:12.638Z,1003.53
2016-09-11T02:32:12.666Z,1003.54
2016-09-11T02:33:12.685Z,1003.54
2016-09-11T02:34:12.712Z,1003.5
2016-09-11T02:35:12.743Z,1003.54
2016-09-11T02:36:12.763Z,1003.5
2016-09-11T02:37:12.789Z,1003.52
2016-09-11T02:38:12.825Z,1003.53
2016-09-11T02:39:12.842Z,1003.51
2016-09-11T02:40:12.867Z,1003.54
2016-09-11T02:41:12.892Z,1003.53
2016-09-11T02:42:12.917Z,1003.51
2016-09-11T02:43:12.946Z,1003.56
2016-09-11T02:44:12.969Z,1003.52
2016-09-11T02:45:13.015Z,1003.5
2016-09-11T02:46:13.022Z,1003.48
2016-09-11T02:47:13.046Z,1003.47
2016-09-11T02:48:13.072Z,1003.49
2016-09-11T02:49:13.098Z,1003.45
2016-09-11T02:50:13.125Z,1003.47
2016-09-11T02:51:13.149Z,1003.45
2016-09-11T02:52:13.175Z,1003.45
2016-09-11T02:53:13.201Z,1003.45
2016-09-11T02:54:13.226Z,1003.47
2016-09-11T02:55:13.269Z,1003.42
2016-09-11T02:56:13.284Z,1003.43
2016-09-11T02:57:13.304Z,1003.45
2016-09-11T02:58:13.337Z,1003.47
2016-09-11T02:59:13.366Z,1003.49
2016-09-11T03:00:13.402Z,1003.47
2016-09-11T03:01:13.407Z,1003.47
2016-09-11T03:02:13.432Z,1003.49
2016-09-11T03:03:13.460Z,1003.47
2016-09-11T03:04:13.483Z,1003.46
2016-09-11T03:05:13.514Z,1003.48
2016-09-11T03:06:13.535Z,1003.49
2016-09-11T03:07:13.563Z,1003.5
2016-09-11T03:08:13.594Z,1003.5
2016-09-11T03:09:13.610Z,1003.53
2016-09-11T03:10:13.637Z,1003.48
2016-09-11T03:11:13.667Z,1003.47
2016-09-11T03:12:13.689Z,1003.45
2016-09-11T03:13:13.721Z,1003.47
2016-09-11T03:14:13.742Z,1003.45
2016-09-11T03:15:13.789Z,1003.46
2016-09-11T03:16:13.800Z,1003.45
2016-09-11T03:17:13.876Z,1003.48
2016-09-11T03:18:13.845Z,1003.46
2016-09-11T03:19:13.872Z,1003.48
2016-09-11T03:20:13.905Z,1003.46
2016-09-11T03:21:13.920Z,1003.45
2016-09-11T03:22:13.945Z,1003.47
2016-09-11T03:23:13.970Z,1003.49
2016-09-11T03:24:14.000Z,1003.49
2016-09-11T03:25:14.034Z,1003.55
2016-09-11T03:26:14.061Z,1003.5
2016-09-11T03:27:14.091Z,1003.47
2016-09-11T03:28:14.101Z,1003.46
2016-09-11T03:29:14.127Z,1003.5
2016-09-11T03:30:14.150Z,1003.48
2016-09-11T03:31:14.174Z,1003.48
2016-09-11T03:32:14.202Z,1003.47
2016-09-11T03:33:14.230Z,1003.47
2016-09-11T03:34:14.253Z,1003.48
2016-09-11T03:35:14.323Z,1003.48
2016-09-11T03:36:14.306Z,1003.49
2016-09-11T03:37:14.331Z,1003.48
2016-09-11T03:38:14.398Z,1003.49
2016-09-11T03:39:14.378Z,1003.44
2016-09-11T03:40:14.406Z,1003.45
2016-09-11T03:41:14.429Z,1003.41
2016-09-11T03:42:14.460Z,1003.45
2016-09-11T03:43:14.482Z,1003.42
2016-09-11T03:44:14.506Z,1003.42
2016-09-11T03:45:14.546Z,1003.42
2016-09-11T03:46:14.570Z,1003.39
2016-09-11T03:47:14.583Z,1003.42
2016-09-11T03:48:14.610Z,1003.4
2016-09-11T03:49:14.633Z,1003.42
2016-09-11T03:50:14.658Z,1003.41
2016-09-11T03:51:14.684Z,1003.42
2016-09-11T03:52:14.709Z,1003.4
2016-09-11T03:53:14.748Z,1003.38
2016-09-11T03:54:14.760Z,1003.43
2016-09-11T03:55:14.790Z,1003.43
2016-09-11T03:56:14.817Z,1003.39
2016-09-11T03:57:14.835Z,1003.42
2016-09-11T03:58:14.859Z,1003.45
2016-09-11T03:59:14.928Z,1003.43
2016-09-11T04:00:14.910Z,1003.42
2016-09-11T04:01:14.936Z,1003.47
2016-09-11T04:02:14.970Z,1003.4
2016-09-11T04:03:14.987Z,1003.45
2016-09-11T04:04:15.012Z,1003.44
2016-09-11T04:05:15.039Z,1003.43
2016-09-11T04:06:15.068Z,1003.46
2016-09-11T04:07:15.089Z,1003.45
2016-09-11T04:08:15.112Z,1003.49
2016-09-11T04:09:15.139Z,1003.47
2016-09-11T04:10:15.170Z,1003.5
2016-09-11T04:11:15.190Z,1003.52
2016-09-11T04:12:15.213Z,1003.52
2016-09-11T04:13:15.247Z,1003.52
2016-09-11T04:14:15.265Z,1003.53
2016-09-11T04:15:15.289Z,1003.53
2016-09-11T04:16:15.315Z,1003.57
2016-09-11T04:17:15.341Z,1003.55
2016-09-11T04:18:15.369Z,1003.61
2016-09-11T04:19:15.390Z,1003.61
2016-09-11T04:20:15.416Z,1003.63
2016-09-11T04:21:15.446Z,1003.63
2016-09-11T04:22:15.464Z,1003.63
2016-09-11T04:23:15.491Z,1003.68
2016-09-11T04:24:15.515Z,1003.62
2016-09-11T04:25:15.601Z,1003.69
2016-09-11T04:26:15.568Z,1003.7
2016-09-11T04:27:15.607Z,1003.7
2016-09-11T04:28:15.617Z,1003.7
2016-09-11T04:29:15.641Z,1003.68
2016-09-11T04:30:15.668Z,1003.7
2016-09-11T04:31:15.692Z,1003.64
2016-09-11T04:32:15.716Z,1003.74
2016-09-11T04:33:15.741Z,1003.72
2016-09-11T04:34:15.766Z,1003.72
2016-09-11T04:35:15.794Z,1003.74
2016-09-11T04:36:15.817Z,1003.77
2016-09-11T04:37:15.846Z,1003.76
2016-09-11T04:38:15.866Z,1003.79
2016-09-11T04:39:15.893Z,1003.8
2016-09-11T04:40:15.917Z,1003.79
2016-09-11T04:41:15.942Z,1003.8
2016-09-11T04:42:15.967Z,1003.82
2016-09-11T04:43:15.995Z,1003.84
2016-09-11T04:44:16.025Z,1003.83
2016-09-11T04:45:16.042Z,1003.85
2016-09-11T04:46:16.068Z,1003.85
2016-09-11T04:47:16.093Z,1003.85
2016-09-11T04:48:16.119Z,1003.85
2016-09-11T04:49:16.147Z,1003.86
2016-09-11T04:50:16.170Z,1003.87
2016-09-11T04:51:16.193Z,1003.92
2016-09-11T04:52:16.220Z,1003.91
2016-09-11T04:53:16.244Z,1003.93
2016-09-11T04:54:16.271Z,1003.94
2016-09-11T04:55:16.294Z,1003.91
2016-09-11T04:56:16.319Z,1003.93
2016-09-11T04:57:16.345Z,1003.97
2016-09-11T04:58:16.369Z,1003.98
2016-09-11T04:59:16.395Z,1003.97
2016-09-11T05:00:16.419Z,1004.02
2016-09-11T05:01:16.445Z,1004.02
2016-09-11T05:02:16.468Z,1004.03
2016-09-11T05:03:16.497Z,1004.01
2016-09-11T05:04:16.532Z,1004.03
2016-09-11T05:05:16.543Z,1004.08
2016-09-11T05:06:16.568Z,1004.1
2016-09-11T05:07:16.593Z,1004.08
2016-09-11T05:08:16.619Z,1004.08
2016-09-11T05:09:16.642Z,1004.09
2016-09-11T05:10:16.668Z,1004.1
2016-09-11T05:11:16.693Z,1004.14
2016-09-11T05:12:16.719Z,1004.17
2016-09-11T05:13:16.742Z,1004.17
2016-09-11T05:14:16.768Z,1004.19
2016-09-11T05:15:16.792Z,1004.17
2016-09-11T05:16:16.819Z,1004.22
2016-09-11T05:17:16.842Z,1004.23
2016-09-11T05:18:16.866Z,1004.27
2016-09-11T05:19:16.892Z,1004.27
2016-09-11T05:20:16.918Z,1004.3
2016-09-11T05:21:16.941Z,1004.28
2016-09-11T05:22:16.966Z,1004.25
2016-09-11T05:23:16.992Z,1004.26
2016-09-11T05:24:17.015Z,1004.25
2016-09-11T05:25:17.042Z,1004.25
2016-09-11T05:26:17.065Z,1004.26
2016-09-11T05:27:17.091Z,1004.3
2016-09-11T05:28:17.114Z,1004.32
2016-09-11T05:29:17.140Z,1004.32
2016-09-11T05:30:17.166Z,1004.3
2016-09-11T05:31:17.189Z,1004.32
2016-09-11T05:32:17.225Z,1004.35
2016-09-11T05:33:17.239Z,1004.33
2016-09-11T05:34:17.264Z,1004.32
2016-09-11T05:35:17.290Z,1004.34
2016-09-11T05:36:17.316Z,1004.35
2016-09-11T05:37:17.339Z,1004.32
2016-09-11T05:38:17.364Z,1004.34
2016-09-11T05:39:17.387Z,1004.36
2016-09-11T05:40:17.416Z,1004.33
2016-09-11T05:41:17.437Z,1004.41
2016-09-11T05:42:17.461Z,1004.39
2016-09-11T05:43:17.486Z,1004.38
2016-09-11T05:44:17.511Z,1004.41
2016-09-11T05:45:17.536Z,1004.43
2016-09-11T05:46:17.562Z,1004.44
2016-09-11T05:47:17.587Z,1004.38
2016-09-11T05:48:17.611Z,1004.44
2016-09-11T05:49:17.636Z,1004.4
2016-09-11T05:50:17.661Z,1004.42
2016-09-11T05:51:17.685Z,1004.42
2016-09-11T05:52:17.710Z,1004.4
2016-09-11T05:53:17.734Z,1004.44
2016-09-11T05:54:17.759Z,1004.43
2016-09-11T05:55:17.785Z,1004.44
2016-09-11T05:56:17.810Z,1004.46
2016-09-11T05:57:17.834Z,1004.51
2016-09-11T05:58:17.859Z,1004.47
2016-09-11T05:59:17.884Z,1004.48
2016-09-11T06:00:17.907Z,1004.52
2016-09-11T06:01:17.933Z,1004.52
2016-09-11T06:02:17.959Z,1004.54
2016-09-11T06:03:18.067Z,1004.54
2016-09-11T06:04:18.006Z,1004.54
2016-09-11T06:05:18.031Z,1004.56
2016-09-11T06:06:18.056Z,1004.55
2016-09-11T06:07:18.103Z,1004.6
2016-09-11T06:08:18.106Z,1004.65
2016-09-11T06:09:18.247Z,1004.64
2016-09-11T06:10:18.158Z,1004.61
2016-09-11T06:11:18.207Z,1004.67
2016-09-11T06:12:18.207Z,1004.68
2016-09-11T06:13:18.233Z,1004.68
2016-09-11T06:14:18.261Z,1004.67
2016-09-11T06:15:18.281Z,1004.7
2016-09-11T06:16:18.305Z,1004.75
2016-09-11T06:17:18.355Z,1004.79
2016-09-11T06:18:18.355Z,1004.92
2016-09-11T06:19:18.385Z,1004.94
2016-09-11T06:20:18.407Z,1004.85
2016-09-11T06:21:18.431Z,1004.88
2016-09-11T06:22:18.456Z,1005.02
2016-09-11T06:23:18.511Z,1005.02
2016-09-11T06:24:18.505Z,1004.97
2016-09-11T06:25:18.533Z,1005
2016-09-11T06:26:18.571Z,1004.94
2016-09-11T06:27:18.618Z,1004.96
2016-09-11T06:28:18.605Z,1004.99
2016-09-11T06:29:18.654Z,1005.04
2016-09-11T06:30:18.659Z,1005.05
2016-09-11T06:31:18.693Z,1005.06
2016-09-11T06:32:18.718Z,1005.05
2016-09-11T06:33:18.734Z,1005.04
2016-09-11T06:34:18.765Z,1005.06
2016-09-11T06:35:18.782Z,1005.04
2016-09-11T06:36:18.855Z,1005.08
2016-09-11T06:37:18.833Z,1005.08
2016-09-11T06:38:18.865Z,1005.05
2016-09-11T06:39:18.882Z,1005.1
2016-09-11T06:40:18.973Z,1005.11
2016-09-11T06:41:18.930Z,1005.13
2016-09-11T06:42:18.958Z,1005.11
2016-09-11T06:43:19.002Z,1005.13
2016-09-11T06:44:19.009Z,1005.17
2016-09-11T06:45:19.031Z,1005.16
2016-09-11T06:46:19.060Z,1005.12
2016-09-11T06:47:19.082Z,1005.16
2016-09-11T06:48:19.114Z,1005.16
2016-09-11T06:49:19.133Z,1005.14
2016-09-11T06:50:19.166Z,1005.14
2016-09-11T06:51:19.188Z,1005.15
2016-09-11T06:52:19.215Z,1005.21
2016-09-11T06:53:19.238Z,1005.21
2016-09-11T06:54:19.330Z,1005.18
2016-09-11T06:55:19.282Z,1005.2
2016-09-11T06:56:19.309Z,1005.22
2016-09-11T06:57:19.334Z,1005.19
2016-09-11T06:58:19.367Z,1005.22
2016-09-11T06:59:19.384Z,1005.23
2016-09-11T07:00:19.416Z,1005.23
2016-09-11T07:01:19.434Z,1005.24
2016-09-11T07:02:19.466Z,1005.23
2016-09-11T07:03:19.532Z,1005.17
2016-09-11T07:04:19.513Z,1005.17
2016-09-11T07:05:19.549Z,1005.21
2016-09-11T07:06:19.560Z,1005.2
2016-09-11T07:07:19.596Z,1005.2
2016-09-11T07:08:19.614Z,1005.22
2016-09-11T07:09:19.654Z,1005.21
2016-09-11T07:10:19.666Z,1005.24
2016-09-11T07:11:19.692Z,1005.2
2016-09-11T07:12:19.714Z,1005.26
2016-09-11T07:13:19.738Z,1005.24
2016-09-11T07:14:19.775Z,1005.24
2016-09-11T07:15:19.791Z,1005.27
2016-09-11T07:16:19.817Z,1005.3
2016-09-11T07:17:19.841Z,1005.33
2016-09-11T07:18:19.874Z,1005.36
2016-09-11T07:19:19.891Z,1005.35
2016-09-11T07:20:19.925Z,1005.32
2016-09-11T07:21:19.943Z,1005.35
2016-09-11T07:22:19.977Z,1005.37
2016-09-11T07:23:20.120Z,1005.38
2016-09-11T07:24:20.125Z,1005.38
2016-09-11T07:25:20.133Z,1005.39
2016-09-11T07:26:20.134Z,1005.4
2016-09-11T07:27:20.149Z,1005.44
2016-09-11T07:28:20.130Z,1005.43
2016-09-11T07:29:20.207Z,1005.44
2016-09-11T07:30:20.267Z,1005.41
2016-09-11T07:31:20.199Z,1005.41
2016-09-11T07:32:20.239Z,1005.43
2016-09-11T07:33:20.250Z,1005.45
2016-09-11T07:34:20.277Z,1005.45
2016-09-11T07:35:20.304Z,1005.47
2016-09-11T07:36:20.340Z,1005.49
2016-09-11T07:37:20.389Z,1005.48
2016-09-11T07:38:20.377Z,1005.47
2016-09-11T07:39:20.626Z,1005.48
2016-09-11T07:40:20.444Z,1005.52
2016-09-11T07:41:20.463Z,1005.54
2016-09-11T07:42:20.481Z,1005.52
2016-09-11T07:43:20.513Z,1005.57
2016-09-11T07:44:20.533Z,1005.54
2016-09-11T07:45:20.558Z,1005.57
2016-09-11T07:46:20.584Z,1005.56
2016-09-11T07:47:20.625Z,1005.54
2016-09-11T07:48:20.636Z,1005.56
2016-09-11T07:49:20.663Z,1005.56
2016-09-11T07:50:20.687Z,1005.57
2016-09-11T07:51:20.719Z,1005.62
2016-09-11T07:52:20.747Z,1005.59
2016-09-11T07:53:20.777Z,1005.61
2016-09-11T07:54:20.791Z,1005.62
2016-09-11T07:55:20.816Z,1005.66
2016-09-11T07:56:20.847Z,1005.66
2016-09-11T07:57:20.879Z,1005.68
2016-09-11T07:58:20.905Z,1005.64
2016-09-11T07:59:20.926Z,1005.61
2016-09-11T08:00:20.948Z,1005.65
2016-09-11T08:01:20.973Z,1005.66
2016-09-11T08:02:21.002Z,1005.67
2016-09-11T08:03:21.027Z,1005.67
2016-09-11T08:04:21.055Z,1005.69
2016-09-11T08:05:21.086Z,1005.67
2016-09-11T08:06:21.109Z,1005.73
2016-09-11T08:07:21.139Z,1005.73
2016-09-11T08:08:21.159Z,1005.73
2016-09-11T08:09:21.184Z,1005.76
2016-09-11T08:10:21.209Z,1005.78
2016-09-11T08:11:21.244Z,1005.81
2016-09-11T08:12:21.267Z,1005.78
2016-09-11T08:13:21.291Z,1005.84
2016-09-11T08:14:21.318Z,1005.82
2016-09-11T08:15:21.344Z,1005.82
2016-09-11T08:16:21.367Z,1005.86
2016-09-11T08:17:21.400Z,1005.86
2016-09-11T08:18:21.421Z,1005.87
2016-09-11T08:19:21.447Z,1005.86
2016-09-11T08:20:21.477Z,1005.83
2016-09-11T08:21:21.501Z,1005.85
2016-09-11T08:22:21.530Z,1005.87
2016-09-11T08:23:21.553Z,1005.92
2016-09-11T08:24:21.579Z,1005.92
2016-09-11T08:25:21.611Z,1005.91
2016-09-11T08:26:21.637Z,1005.87
2016-09-11T08:27:21.662Z,1005.9
2016-09-11T08:28:21.687Z,1005.87
2016-09-11T08:29:21.714Z,1005.91
2016-09-11T08:30:21.740Z,1005.89
2016-09-11T08:31:21.952Z,1005.92
2016-09-11T08:32:21.795Z,1005.93
2016-09-11T08:33:21.850Z,1005.94
2016-09-11T08:34:21.850Z,1005.92
2016-09-11T08:35:21.915Z,1005.93
2016-09-11T08:36:21.901Z,1005.95
2016-09-11T08:37:21.929Z,1005.93
2016-09-11T08:38:21.953Z,1005.94
2016-09-11T08:39:21.982Z,1005.93
2016-09-11T08:40:22.012Z,1005.92
2016-09-11T08:41:22.035Z,1005.94
2016-09-11T08:42:22.066Z,1005.97
2016-09-11T08:43:22.101Z,1005.91
2016-09-11T08:44:22.203Z,1005.93
2016-09-11T08:45:22.144Z,1005.98
2016-09-11T08:46:22.170Z,1006.01
2016-09-11T08:47:22.199Z,1005.95
2016-09-11T08:48:22.226Z,1005.97
2016-09-11T08:49:22.256Z,1005.99
2016-09-11T08:50:22.283Z,1005.95
2016-09-11T08:51:22.307Z,1006
2016-09-11T08:52:22.341Z,1005.99
2016-09-11T08:53:22.378Z,1005.98
2016-09-11T08:54:22.391Z,1005.98
2016-09-11T08:55:22.420Z,1006.02
2016-09-11T08:56:22.446Z,1005.99
2016-09-11T08:57:22.472Z,1006.03
2016-09-11T08:58:22.498Z,1006.01
2016-09-11T08:59:22.530Z,1006.03
2016-09-11T09:00:22.553Z,1006.02
2016-09-11T09:01:22.583Z,1006.03
2016-09-11T09:02:22.614Z,1006.07
2016-09-11T09:03:22.635Z,1006.07
2016-09-11T09:04:22.675Z,1006.04
2016-09-11T09:05:22.691Z,1006.02
2016-09-11T09:06:22.719Z,1006.05
2016-09-11T09:07:22.745Z,1006.02
2016-09-11T09:08:22.779Z,1006.05
2016-09-11T09:09:22.836Z,1006.04
2016-09-11T09:10:22.852Z,1006.04
2016-09-11T09:11:22.861Z,1006.05
2016-09-11T09:12:23.315Z,1006.03
2016-09-11T09:13:22.915Z,1006.04
2016-09-11T09:14:22.939Z,1006.07
2016-09-11T09:15:22.975Z,1006.06
2016-09-11T09:16:22.999Z,1006.04
2016-09-11T09:17:23.023Z,1006.07
2016-09-11T09:18:23.058Z,1006.04
2016-09-11T09:19:23.078Z,1006.07
2016-09-11T09:20:23.110Z,1006.09
2016-09-11T09:21:23.142Z,1006.12
2016-09-11T09:22:23.163Z,1006.12
2016-09-11T09:23:23.193Z,1006.17
2016-09-11T09:24:23.222Z,1006.13
2016-09-11T09:25:23.267Z,1006.12
2016-09-11T09:26:23.292Z,1006.12
2016-09-11T09:27:23.322Z,1006.15
2016-09-11T09:28:23.335Z,1006.15
2016-09-11T09:29:23.360Z,1006.1
2016-09-11T09:30:23.388Z,1006.11
2016-09-11T09:31:23.491Z,1006.12
2016-09-11T09:32:23.446Z,1006.08
2016-09-11T09:33:23.475Z,1006.08
2016-09-11T09:34:23.504Z,1006.06
2016-09-11T09:35:23.532Z,1006.1
2016-09-11T09:36:23.561Z,1006.11
2016-09-11T09:37:23.588Z,1006.11
2016-09-11T09:38:23.617Z,1006.08
2016-09-11T09:39:23.646Z,1006.07
2016-09-11T09:40:23.674Z,1006.09
2016-09-11T09:41:23.717Z,1006.06
2016-09-11T09:42:23.778Z,1006.09
2016-09-11T09:43:23.768Z,1006.07
2016-09-11T09:44:23.790Z,1006.08
2016-09-11T09:45:23.818Z,1006.05
2016-09-11T09:46:23.848Z,1006.05
2016-09-11T09:47:23.878Z,1006.07
2016-09-11T09:48:23.904Z,1006.08
2016-09-11T09:49:23.933Z,1006.03
2016-09-11T09:50:23.968Z,1006.07
2016-09-11T09:51:23.992Z,1006.09
2016-09-11T09:52:24.019Z,1006.05
2016-09-11T09:53:24.051Z,1006.05
2016-09-11T09:54:24.096Z,1006.05
2016-09-11T09:55:24.109Z,1006.07
2016-09-11T09:56:24.143Z,1006.08
2016-09-11T09:57:24.187Z,1006.05
2016-09-11T09:58:24.196Z,1006.02
2016-09-11T09:59:24.232Z,1006.04
2016-09-11T10:00:24.252Z,1006.03
2016-09-11T10:01:24.282Z,1006.02
2016-09-11T10:02:24.311Z,1006.01
2016-09-11T10:03:24.340Z,1005.99
2016-09-11T10:04:24.372Z,1006.04
2016-09-11T10:05:24.408Z,1006.02
2016-09-11T10:06:24.428Z,1006
2016-09-11T10:07:24.457Z,1006.04
2016-09-11T10:08:24.501Z,1006.03
2016-09-11T10:09:24.518Z,1006.03
2016-09-11T10:10:24.545Z,1006
2016-09-11T10:11:24.578Z,1006.03
2016-09-11T10:12:24.607Z,1006.04
2016-09-11T10:13:24.634Z,1006.02
2016-09-11T10:14:24.665Z,1006.03
2016-09-11T10:15:24.695Z,1006.06
2016-09-11T10:16:24.726Z,1006.03
2016-09-11T10:17:24.757Z,1006.03
2016-09-11T10:18:24.786Z,1006
2016-09-11T10:19:24.815Z,1005.98
2016-09-11T10:20:24.844Z,1006.01
2016-09-11T10:21:24.875Z,1005.98
2016-09-11T10:22:24.905Z,1005.98
2016-09-11T10:23:24.935Z,1005.99
2016-09-11T10:24:24.977Z,1006.01
2016-09-11T10:25:24.993Z,1006
2016-09-11T10:26:25.024Z,1006.03
2016-09-11T10:27:25.053Z,1006.06
2016-09-11T10:28:25.088Z,1006.04
2016-09-11T10:29:25.115Z,1006.07
2016-09-11T10:30:25.159Z,1006.05
2016-09-11T10:31:25.176Z,1006.04
2016-09-11T10:32:25.214Z,1006.01
2016-09-11T10:33:25.240Z,1006.02
2016-09-11T10:34:25.265Z,1006.02
2016-09-11T10:35:25.322Z,1006
2016-09-11T10:36:25.327Z,1006
2016-09-11T10:37:25.357Z,1006.01
2016-09-11T10:38:25.391Z,1005.99
2016-09-11T10:39:25.417Z,1006.01
2016-09-11T10:40:25.454Z,1006
2016-09-11T10:41:25.479Z,1006
2016-09-11T10:42:25.509Z,1006.03
2016-09-11T10:43:25.544Z,1006.03
2016-09-11T10:44:25.697Z,1006.04
2016-09-11T10:45:25.613Z,1006.02
2016-09-11T10:46:25.633Z,1005.99
2016-09-11T10:47:25.663Z,1006
2016-09-11T10:48:25.695Z,1006.03
2016-09-11T10:49:25.724Z,1006.02
2016-09-11T10:50:25.755Z,1006.03
2016-09-11T10:51:25.786Z,1006.06
2016-09-11T10:52:25.817Z,1006.03
2016-09-11T10:53:25.854Z,1006.04
2016-09-11T10:54:25.880Z,1006.03
2016-09-11T10:55:25.914Z,1006.07
2016-09-11T10:56:25.946Z,1006.06
2016-09-11T10:57:25.972Z,1006.03
2016-09-11T10:58:26.008Z,1006.06
2016-09-11T10:59:26.036Z,1006.03
2016-09-11T11:00:26.178Z,1006.06
2016-09-11T11:01:26.137Z,1006.05
2016-09-11T11:02:26.129Z,1006.06
2016-09-11T11:03:26.184Z,1006.05
2016-09-11T11:04:26.192Z,1006.02
2016-09-11T11:05:26.228Z,1006.04
2016-09-11T11:06:26.256Z,1006.03
2016-09-11T11:07:26.287Z,1006.05
2016-09-11T11:08:26.319Z,1006.09
2016-09-11T11:09:26.350Z,1006.07
2016-09-11T11:10:26.385Z,1006.08
2016-09-11T11:11:26.417Z,1006.06
2016-09-11T11:12:26.448Z,1006.06
2016-09-11T11:13:26.478Z,1006.08
2016-09-11T11:14:26.511Z,1006.11
2016-09-11T11:15:26.544Z,1006.11
2016-09-11T11:16:26.597Z,1006.13
2016-09-11T11:17:26.606Z,1006.13
2016-09-11T11:18:26.637Z,1006.16
2016-09-11T11:19:26.669Z,1006.15
2016-09-11T11:20:26.704Z,1006.12
2016-09-11T11:21:26.743Z,1006.1
2016-09-11T11:22:26.788Z,1006.1
2016-09-11T11:23:26.797Z,1006.07
2016-09-11T11:24:26.938Z,1006.11
2016-09-11T11:25:26.866Z,1006.12
2016-09-11T11:26:26.893Z,1006.14
2016-09-11T11:27:26.925Z,1006.13
2016-09-11T11:28:26.958Z,1006.12
2016-09-11T11:29:26.996Z,1006.11
2016-09-11T11:30:27.029Z,1006.16
2016-09-11T11:31:27.054Z,1006.13
2016-09-11T11:32:27.093Z,1006.15
2016-09-11T11:33:27.120Z,1006.12
2016-09-11T11:34:27.153Z,1006.11
2016-09-11T11:35:27.185Z,1006.11
2016-09-11T11:36:27.260Z,1006.11
2016-09-11T11:37:27.249Z,1006.12
2016-09-11T11:38:27.281Z,1006.08
2016-09-11T11:39:27.319Z,1006.13
2016-09-11T11:40:27.354Z,1006.13
2016-09-11T11:41:27.379Z,1006.15
2016-09-11T11:42:27.414Z,1006.17
2016-09-11T11:43:27.542Z,1006.12
2016-09-11T11:44:27.544Z,1006.1
2016-09-11T11:45:27.548Z,1006.08
2016-09-11T11:46:27.544Z,1006.08
2016-09-11T11:47:27.580Z,1006.08
2016-09-11T11:48:28.235Z,1006.07
2016-09-11T11:49:27.701Z,1006.06
2016-09-11T11:50:27.767Z,1006.05
2016-09-11T11:51:27.723Z,1006.07
2016-09-11T11:52:27.744Z,1006.05
2016-09-11T11:53:27.778Z,1006.03
2016-09-11T11:54:27.820Z,1006.06
2016-09-11T11:55:27.839Z,1006.07
2016-09-11T11:56:27.873Z,1006.03
2016-09-11T11:57:27.907Z,1006.08
2016-09-11T11:58:27.943Z,1006.05
2016-09-11T11:59:27.984Z,1006.06
2016-09-11T12:00:28.011Z,1006.08
2016-09-11T12:01:28.042Z,1006.07
2016-09-11T12:02:28.073Z,1006.04
2016-09-11T12:03:28.108Z,1006.06
2016-09-11T12:04:28.140Z,1006.05
2016-09-11T12:05:28.173Z,1006
2016-09-11T12:06:28.232Z,1006.03
2016-09-11T12:07:28.274Z,1006.04
2016-09-11T12:08:28.274Z,1005.98